Terminal Aerodrome Forecast
Issued by NWS Twin Cities, MN

Home | Current Version | Previous Version | Graphics & Text | Print | Product List | Glossary On
Versions: 1 2 3 4 5 6 7 8 9 10 11 12 13 14 15 16 17 18 19
000
FTUS43 KMPX 231100
TAFEAU
TAF
KEAU 231128Z 2312/2412 36004KT P6SM SKC
      TEMPO 2312/2313 1SM BR SCT002
     FM231700 35008KT P6SM SCT050
     FM240100 03004KT P6SM SKC
     FM240900 00000KT 3SM BR SKC
      TEMPO 2410/2412 1/2SM FG VV002=

USA.gov is the U.S. government's official web portal to all federal, state and local government web resources and services.